sensor_id;sensor_type;location;lat;lon;timestamp;P1;durP1;ratioP1;P2;durP2;ratioP2
59424;SDS011;45231;44.826;20.312;2022-10-15T00:01:50;13.02;;;5.72;;
59424;SDS011;45231;44.826;20.312;2022-10-15T00:04:16;11.45;;;6.30;;
59424;SDS011;45231;44.826;20.312;2022-10-15T00:06:42;10.50;;;5.97;;
59424;SDS011;45231;44.826;20.312;2022-10-15T00:09:08;10.30;;;6.10;;
59424;SDS011;45231;44.826;20.312;2022-10-15T00:11:34;15.90;;;6.13;;
59424;SDS011;45231;44.826;20.312;2022-10-15T00:14:00;10.85;;;6.00;;
59424;SDS011;45231;44.826;20.312;2022-10-15T00:16:27;10.48;;;5.90;;
59424;SDS011;45231;44.826;20.312;2022-10-15T00:18:57;10.60;;;5.75;;
59424;SDS011;45231;44.826;20.312;2022-10-15T00:21:23;10.68;;;5.65;;
59424;SDS011;45231;44.826;20.312;2022-10-15T00:23:50;11.10;;;6.03;;
59424;SDS011;45231;44.826;20.312;2022-10-15T00:26:20;11.07;;;5.80;;
59424;SDS011;45231;44.826;20.312;2022-10-15T00:28:47;11.48;;;6.38;;
59424;SDS011;45231;44.826;20.312;2022-10-15T00:31:14;10.70;;;6.00;;
59424;SDS011;45231;44.826;20.312;2022-10-15T00:33:41;11.73;;;6.10;;
59424;SDS011;45231;44.826;20.312;2022-10-15T00:36:10;11.00;;;6.25;;
59424;SDS011;45231;44.826;20.312;2022-10-15T00:38:36;11.73;;;7.03;;
59424;SDS011;45231;44.826;20.312;2022-10-15T00:41:03;11.02;;;6.32;;
59424;SDS011;45231;44.826;20.312;2022-10-15T00:43:49;9.25;;;5.43;;
59424;SDS011;45231;44.826;20.312;2022-10-15T00:48:48;11.98;;;5.70;;
59424;SDS011;45231;44.826;20.312;2022-10-15T00:51:15;11.02;;;6.18;;
59424;SDS011;45231;44.826;20.312;2022-10-15T00:53:42;12.15;;;5.97;;
59424;SDS011;45231;44.826;20.312;2022-10-15T00:56:09;10.65;;;6.65;;
59424;SDS011;45231;44.826;20.312;2022-10-15T00:58:39;11.05;;;6.45;;
59424;SDS011;45231;44.826;20.312;2022-10-15T01:01:05;14.45;;;6.82;;
59424;SDS011;45231;44.826;20.312;2022-10-15T01:03:31;11.35;;;6.40;;
59424;SDS011;45231;44.826;20.312;2022-10-15T01:06:00;12.13;;;6.50;;
59424;SDS011;45231;44.826;20.312;2022-10-15T01:08:26;12.50;;;6.55;;
59424;SDS011;45231;44.826;20.312;2022-10-15T01:18:56;11.75;;;6.28;;
59424;SDS011;45231;44.826;20.312;2022-10-15T01:21:26;12.07;;;6.82;;
59424;SDS011;45231;44.826;20.312;2022-10-15T01:26:42;11.80;;;6.23;;
59424;SDS011;45231;44.826;20.312;2022-10-15T01:29:25;13.20;;;6.90;;
59424;SDS011;45231;44.826;20.312;2022-10-15T01:32:06;12.32;;;6.22;;
59424;SDS011;45231;44.826;20.312;2022-10-15T01:34:45;10.35;;;6.25;;
59424;SDS011;45231;44.826;20.312;2022-10-15T01:40:08;13.40;;;7.15;;
59424;SDS011;45231;44.826;20.312;2022-10-15T01:42:43;12.25;;;6.25;;
59424;SDS011;45231;44.826;20.312;2022-10-15T01:45:12;12.52;;;6.82;;
59424;SDS011;45231;44.826;20.312;2022-10-15T01:47:41;11.07;;;6.50;;
59424;SDS011;45231;44.826;20.312;2022-10-15T01:50:08;12.15;;;6.75;;
59424;SDS011;45231;44.826;20.312;2022-10-15T01:52:37;10.38;;;6.20;;
59424;SDS011;45231;44.826;20.312;2022-10-15T01:55:05;15.18;;;7.07;;
59424;SDS011;45231;44.826;20.312;2022-10-15T01:57:32;12.52;;;7.22;;
59424;SDS011;45231;44.826;20.312;2022-10-15T02:00:00;14.45;;;6.80;;
59424;SDS011;45231;44.826;20.312;2022-10-15T02:02:27;13.30;;;7.32;;
59424;SDS011;45231;44.826;20.312;2022-10-15T02:04:53;12.82;;;7.05;;
59424;SDS011;45231;44.826;20.312;2022-10-15T02:07:41;11.70;;;6.85;;
59424;SDS011;45231;44.826;20.312;2022-10-15T02:15:23;10.82;;;6.20;;
59424;SDS011;45231;44.826;20.312;2022-10-15T02:17:57;11.27;;;6.32;;
59424;SDS011;45231;44.826;20.312;2022-10-15T02:20:30;11.77;;;6.38;;
59424;SDS011;45231;44.826;20.312;2022-10-15T02:23:06;13.18;;;6.85;;
59424;SDS011;45231;44.826;20.312;2022-10-15T02:25:36;13.18;;;6.28;;
59424;SDS011;45231;44.826;20.312;2022-10-15T02:28:04;11.60;;;6.95;;
59424;SDS011;45231;44.826;20.312;2022-10-15T02:30:31;12.25;;;6.07;;
59424;SDS011;45231;44.826;20.312;2022-10-15T02:32:58;11.70;;;7.22;;
59424;SDS011;45231;44.826;20.312;2022-10-15T02:35:24;12.73;;;6.25;;
59424;SDS011;45231;44.826;20.312;2022-10-15T02:37:52;12.73;;;6.75;;
59424;SDS011;45231;44.826;20.312;2022-10-15T02:40:23;13.68;;;6.82;;
59424;SDS011;45231;44.826;20.312;2022-10-15T02:42:51;10.13;;;6.18;;
59424;SDS011;45231;44.826;20.312;2022-10-15T02:45:17;11.40;;;6.38;;
59424;SDS011;45231;44.826;20.312;2022-10-15T02:47:43;13.18;;;6.85;;
59424;SDS011;45231;44.826;20.312;2022-10-15T02:50:09;12.63;;;6.97;;
59424;SDS011;45231;44.826;20.312;2022-10-15T02:52:36;13.45;;;7.25;;
59424;SDS011;45231;44.826;20.312;2022-10-15T02:55:02;12.55;;;6.85;;
59424;SDS011;45231;44.826;20.312;2022-10-15T02:57:29;13.98;;;7.53;;
59424;SDS011;45231;44.826;20.312;2022-10-15T02:59:55;13.45;;;8.07;;
59424;SDS011;45231;44.826;20.312;2022-10-15T03:02:21;14.77;;;7.63;;
59424;SDS011;45231;44.826;20.312;2022-10-15T03:04:47;14.87;;;7.13;;
59424;SDS011;45231;44.826;20.312;2022-10-15T03:07:13;14.15;;;7.72;;
59424;SDS011;45231;44.826;20.312;2022-10-15T03:09:39;13.82;;;7.03;;
59424;SDS011;45231;44.826;20.312;2022-10-15T03:12:05;12.63;;;7.20;;
59424;SDS011;45231;44.826;20.312;2022-10-15T03:14:32;12.95;;;7.65;;
59424;SDS011;45231;44.826;20.312;2022-10-15T03:17:00;13.75;;;7.28;;
59424;SDS011;45231;44.826;20.312;2022-10-15T03:19:27;12.55;;;6.70;;
59424;SDS011;45231;44.826;20.312;2022-10-15T03:21:53;13.50;;;7.18;;
59424;SDS011;45231;44.826;20.312;2022-10-15T03:24:19;14.27;;;7.38;;
59424;SDS011;45231;44.826;20.312;2022-10-15T03:26:45;12.40;;;7.35;;
59424;SDS011;45231;44.826;20.312;2022-10-15T03:29:11;14.27;;;7.55;;
59424;SDS011;45231;44.826;20.312;2022-10-15T03:31:37;12.88;;;7.43;;
59424;SDS011;45231;44.826;20.312;2022-10-15T03:34:03;12.67;;;7.27;;
59424;SDS011;45231;44.826;20.312;2022-10-15T03:36:29;14.75;;;7.20;;
59424;SDS011;45231;44.826;20.312;2022-10-15T03:38:56;13.68;;;7.43;;
59424;SDS011;45231;44.826;20.312;2022-10-15T03:41:22;13.77;;;7.40;;
59424;SDS011;45231;44.826;20.312;2022-10-15T03:46:15;14.32;;;7.05;;
59424;SDS011;45231;44.826;20.312;2022-10-15T03:48:41;12.20;;;6.63;;
59424;SDS011;45231;44.826;20.312;2022-10-15T03:51:07;12.03;;;6.53;;
59424;SDS011;45231;44.826;20.312;2022-10-15T03:53:33;11.70;;;6.60;;
59424;SDS011;45231;44.826;20.312;2022-10-15T03:56:03;14.65;;;7.20;;
59424;SDS011;45231;44.826;20.312;2022-10-15T03:58:29;13.00;;;6.60;;
59424;SDS011;45231;44.826;20.312;2022-10-15T04:00:55;11.57;;;6.93;;
59424;SDS011;45231;44.826;20.312;2022-10-15T04:03:21;12.88;;;7.28;;
59424;SDS011;45231;44.826;20.312;2022-10-15T04:05:51;14.63;;;7.40;;
59424;SDS011;45231;44.826;20.312;2022-10-15T04:08:17;12.30;;;6.60;;
59424;SDS011;45231;44.826;20.312;2022-10-15T04:10:43;11.80;;;7.10;;
59424;SDS011;45231;44.826;20.312;2022-10-15T04:13:09;14.50;;;7.20;;
59424;SDS011;45231;44.826;20.312;2022-10-15T04:15:38;12.10;;;6.82;;
59424;SDS011;45231;44.826;20.312;2022-10-15T04:18:05;11.63;;;7.25;;
59424;SDS011;45231;44.826;20.312;2022-10-15T04:20:31;15.30;;;7.03;;
59424;SDS011;45231;44.826;20.312;2022-10-15T04:22:57;12.23;;;7.40;;
59424;SDS011;45231;44.826;20.312;2022-10-15T04:25:23;11.13;;;6.87;;
59424;SDS011;45231;44.826;20.312;2022-10-15T04:27:49;15.30;;;7.15;;
59424;SDS011;45231;44.826;20.312;2022-10-15T04:30:17;13.60;;;8.02;;
59424;SDS011;45231;44.826;20.312;2022-10-15T04:32:43;14.00;;;8.02;;
59424;SDS011;45231;44.826;20.312;2022-10-15T04:35:10;12.93;;;7.47;;
59424;SDS011;45231;44.826;20.312;2022-10-15T04:37:36;15.50;;;7.32;;
59424;SDS011;45231;44.826;20.312;2022-10-15T04:40:02;14.20;;;7.53;;
59424;SDS011;45231;44.826;20.312;2022-10-15T04:42:29;12.85;;;7.68;;
59424;SDS011;45231;44.826;20.312;2022-10-15T04:44:56;12.77;;;6.90;;
59424;SDS011;45231;44.826;20.312;2022-10-15T04:47:22;11.35;;;6.28;;
59424;SDS011;45231;44.826;20.312;2022-10-15T04:49:48;15.30;;;7.82;;
59424;SDS011;45231;44.826;20.312;2022-10-15T04:52:14;11.57;;;6.90;;
59424;SDS011;45231;44.826;20.312;2022-10-15T04:54:40;13.02;;;7.25;;
59424;SDS011;45231;44.826;20.312;2022-10-15T04:57:06;14.13;;;6.80;;
59424;SDS011;45231;44.826;20.312;2022-10-15T04:59:32;11.63;;;6.43;;
59424;SDS011;45231;44.826;20.312;2022-10-15T05:01:59;12.45;;;6.63;;
59424;SDS011;45231;44.826;20.312;2022-10-15T05:04:25;11.48;;;6.28;;
59424;SDS011;45231;44.826;20.312;2022-10-15T05:06:51;13.18;;;7.18;;
59424;SDS011;45231;44.826;20.312;2022-10-15T05:09:17;12.82;;;6.93;;
59424;SDS011;45231;44.826;20.312;2022-10-15T05:11:43;9.93;;;6.10;;
59424;SDS011;45231;44.826;20.312;2022-10-15T05:14:09;10.20;;;6.10;;
59424;SDS011;45231;44.826;20.312;2022-10-15T05:16:35;13.07;;;5.75;;
59424;SDS011;45231;44.826;20.312;2022-10-15T05:19:05;9.90;;;5.63;;
59424;SDS011;45231;44.826;20.312;2022-10-15T05:21:32;8.85;;;5.60;;
59424;SDS011;45231;44.826;20.312;2022-10-15T05:26:25;11.88;;;5.28;;
59424;SDS011;45231;44.826;20.312;2022-10-15T05:28:51;10.80;;;5.38;;
59424;SDS011;45231;44.826;20.312;2022-10-15T05:31:19;9.98;;;5.10;;
59424;SDS011;45231;44.826;20.312;2022-10-15T05:33:46;8.48;;;5.05;;
59424;SDS011;45231;44.826;20.312;2022-10-15T05:36:13;7.88;;;4.65;;
59424;SDS011;45231;44.826;20.312;2022-10-15T05:38:46;10.30;;;5.07;;
59424;SDS011;45231;44.826;20.312;2022-10-15T05:41:12;8.82;;;5.05;;
59424;SDS011;45231;44.826;20.312;2022-10-15T05:43:39;7.47;;;4.65;;
59424;SDS011;45231;44.826;20.312;2022-10-15T05:46:05;8.57;;;4.70;;
59424;SDS011;45231;44.826;20.312;2022-10-15T05:48:31;8.77;;;4.57;;
59424;SDS011;45231;44.826;20.312;2022-10-15T05:51:04;8.70;;;4.63;;
59424;SDS011;45231;44.826;20.312;2022-10-15T05:53:31;13.23;;;5.15;;
59424;SDS011;45231;44.826;20.312;2022-10-15T05:55:57;8.90;;;4.80;;
59424;SDS011;45231;44.826;20.312;2022-10-15T05:58:24;10.50;;;4.97;;
59424;SDS011;45231;44.826;20.312;2022-10-15T06:00:54;7.65;;;4.57;;
59424;SDS011;45231;44.826;20.312;2022-10-15T06:03:20;8.15;;;5.50;;
59424;SDS011;45231;44.826;20.312;2022-10-15T06:08:12;8.65;;;4.25;;
59424;SDS011;45231;44.826;20.312;2022-10-15T06:20:22;8.65;;;5.05;;
59424;SDS011;45231;44.826;20.312;2022-10-15T06:22:48;7.78;;;4.60;;
59424;SDS011;45231;44.826;20.312;2022-10-15T06:25:14;7.82;;;4.57;;
59424;SDS011;45231;44.826;20.312;2022-10-15T06:30:07;7.35;;;4.60;;
59424;SDS011;45231;44.826;20.312;2022-10-15T06:32:33;8.27;;;5.10;;
59424;SDS011;45231;44.826;20.312;2022-10-15T06:34:59;9.68;;;4.95;;
59424;SDS011;45231;44.826;20.312;2022-10-15T06:37:27;11.07;;;5.50;;
59424;SDS011;45231;44.826;20.312;2022-10-15T06:39:53;8.85;;;5.05;;
59424;SDS011;45231;44.826;20.312;2022-10-15T06:42:19;7.97;;;4.53;;
59424;SDS011;45231;44.826;20.312;2022-10-15T06:44:45;9.20;;;5.13;;
59424;SDS011;45231;44.826;20.312;2022-10-15T06:47:11;7.88;;;4.93;;
59424;SDS011;45231;44.826;20.312;2022-10-15T06:49:37;9.40;;;5.10;;
59424;SDS011;45231;44.826;20.312;2022-10-15T06:52:03;7.15;;;4.85;;
59424;SDS011;45231;44.826;20.312;2022-10-15T06:54:29;7.78;;;5.03;;
59424;SDS011;45231;44.826;20.312;2022-10-15T06:56:55;9.55;;;4.63;;
59424;SDS011;45231;44.826;20.312;2022-10-15T06:59:21;10.45;;;5.00;;
59424;SDS011;45231;44.826;20.312;2022-10-15T07:04:21;8.30;;;5.10;;
59424;SDS011;45231;44.826;20.312;2022-10-15T07:06:47;7.32;;;4.97;;
59424;SDS011;45231;44.826;20.312;2022-10-15T07:09:13;7.50;;;4.43;;
59424;SDS011;45231;44.826;20.312;2022-10-15T07:14:05;6.95;;;4.18;;
59424;SDS011;45231;44.826;20.312;2022-10-15T07:18:57;7.03;;;4.05;;
59424;SDS011;45231;44.826;20.312;2022-10-15T07:23:49;6.55;;;3.83;;
59424;SDS011;45231;44.826;20.312;2022-10-15T07:26:15;7.57;;;4.20;;
59424;SDS011;45231;44.826;20.312;2022-10-15T07:28:42;7.13;;;3.60;;
59424;SDS011;45231;44.826;20.312;2022-10-15T07:33:34;7.18;;;3.83;;
59424;SDS011;45231;44.826;20.312;2022-10-15T07:36:04;7.32;;;3.80;;
59424;SDS011;45231;44.826;20.312;2022-10-15T07:38:31;7.68;;;3.92;;
59424;SDS011;45231;44.826;20.312;2022-10-15T07:40:58;7.43;;;4.07;;
59424;SDS011;45231;44.826;20.312;2022-10-15T07:43:24;6.80;;;3.70;;
59424;SDS011;45231;44.826;20.312;2022-10-15T07:48:16;7.65;;;4.20;;
59424;SDS011;45231;44.826;20.312;2022-10-15T07:53:08;7.20;;;3.75;;
59424;SDS011;45231;44.826;20.312;2022-10-15T07:58:00;7.30;;;3.47;;
59424;SDS011;45231;44.826;20.312;2022-10-15T08:00:29;7.63;;;4.05;;
59424;SDS011;45231;44.826;20.312;2022-10-15T08:05:21;7.82;;;3.72;;
59424;SDS011;45231;44.826;20.312;2022-10-15T08:10:13;6.07;;;3.13;;
59424;SDS011;45231;44.826;20.312;2022-10-15T08:12:40;6.18;;;3.25;;
59424;SDS011;45231;44.826;20.312;2022-10-15T08:15:07;7.20;;;3.40;;
59424;SDS011;45231;44.826;20.312;2022-10-15T08:19:59;7.05;;;3.40;;
59424;SDS011;45231;44.826;20.312;2022-10-15T08:22:25;6.78;;;3.80;;
59424;SDS011;45231;44.826;20.312;2022-10-15T08:24:51;6.78;;;3.78;;
59424;SDS011;45231;44.826;20.312;2022-10-15T08:27:17;8.90;;;4.03;;
59424;SDS011;45231;44.826;20.312;2022-10-15T08:32:11;6.32;;;3.60;;
59424;SDS011;45231;44.826;20.312;2022-10-15T08:34:37;7.75;;;4.28;;
59424;SDS011;45231;44.826;20.312;2022-10-15T08:37:03;6.60;;;3.88;;
59424;SDS011;45231;44.826;20.312;2022-10-15T08:39:29;9.45;;;3.78;;
59424;SDS011;45231;44.826;20.312;2022-10-15T08:41:58;7.82;;;3.65;;
59424;SDS011;45231;44.826;20.312;2022-10-15T08:44:45;6.85;;;3.88;;
59424;SDS011;45231;44.826;20.312;2022-10-15T08:47:24;7.70;;;3.95;;
59424;SDS011;45231;44.826;20.312;2022-10-15T08:49:58;7.05;;;3.55;;
59424;SDS011;45231;44.826;20.312;2022-10-15T08:54:51;7.38;;;3.60;;
59424;SDS011;45231;44.826;20.312;2022-10-15T09:00:30;7.60;;;4.28;;
59424;SDS011;45231;44.826;20.312;2022-10-15T09:10:51;7.03;;;3.85;;
59424;SDS011;45231;44.826;20.312;2022-10-15T09:15:55;6.45;;;3.30;;
59424;SDS011;45231;44.826;20.312;2022-10-15T09:18:24;7.25;;;3.88;;
59424;SDS011;45231;44.826;20.312;2022-10-15T09:20:52;7.47;;;3.85;;
59424;SDS011;45231;44.826;20.312;2022-10-15T09:23:22;7.18;;;3.97;;
59424;SDS011;45231;44.826;20.312;2022-10-15T09:26:49;6.50;;;3.58;;
59424;SDS011;45231;44.826;20.312;2022-10-15T09:28:43;7.15;;;4.10;;
59424;SDS011;45231;44.826;20.312;2022-10-15T09:31:12;6.72;;;3.67;;
59424;SDS011;45231;44.826;20.312;2022-10-15T09:33:47;7.38;;;3.92;;
59424;SDS011;45231;44.826;20.312;2022-10-15T09:44:13;8.38;;;3.90;;
59424;SDS011;45231;44.826;20.312;2022-10-15T09:49:07;7.18;;;3.92;;
59424;SDS011;45231;44.826;20.312;2022-10-15T09:51:43;8.45;;;4.20;;
59424;SDS011;45231;44.826;20.312;2022-10-15T09:56:54;7.45;;;3.80;;
59424;SDS011;45231;44.826;20.312;2022-10-15T09:59:21;6.97;;;3.90;;
59424;SDS011;45231;44.826;20.312;2022-10-15T10:04:33;6.40;;;3.63;;
59424;SDS011;45231;44.826;20.312;2022-10-15T10:07:03;8.40;;;4.55;;
59424;SDS011;45231;44.826;20.312;2022-10-15T10:11:58;6.90;;;3.85;;
59424;SDS011;45231;44.826;20.312;2022-10-15T10:14:27;9.63;;;4.22;;
59424;SDS011;45231;44.826;20.312;2022-10-15T10:19:29;6.80;;;3.35;;
59424;SDS011;45231;44.826;20.312;2022-10-15T10:22:05;8.45;;;4.45;;
59424;SDS011;45231;44.826;20.312;2022-10-15T10:24:36;7.93;;;3.78;;
59424;SDS011;45231;44.826;20.312;2022-10-15T10:27:02;7.25;;;4.10;;
59424;SDS011;45231;44.826;20.312;2022-10-15T10:29:29;6.93;;;3.78;;
59424;SDS011;45231;44.826;20.312;2022-10-15T10:31:56;8.00;;;3.95;;
59424;SDS011;45231;44.826;20.312;2022-10-15T10:34:25;6.65;;;3.55;;
59424;SDS011;45231;44.826;20.312;2022-10-15T10:36:52;7.72;;;3.63;;
59424;SDS011;45231;44.826;20.312;2022-10-15T10:39:25;7.95;;;3.72;;
59424;SDS011;45231;44.826;20.312;2022-10-15T10:44:19;8.35;;;3.92;;
59424;SDS011;45231;44.826;20.312;2022-10-15T10:49:31;7.65;;;3.92;;
59424;SDS011;45231;44.826;20.312;2022-10-15T10:51:58;7.30;;;3.97;;
59424;SDS011;45231;44.826;20.312;2022-10-15T10:54:24;7.47;;;4.28;;
59424;SDS011;45231;44.826;20.312;2022-10-15T10:56:51;8.82;;;4.35;;
59424;SDS011;45231;44.826;20.312;2022-10-15T11:01:45;8.93;;;4.03;;
59424;SDS011;45231;44.826;20.312;2022-10-15T11:09:12;7.82;;;3.60;;
59424;SDS011;45231;44.826;20.312;2022-10-15T11:11:49;7.68;;;4.32;;
59424;SDS011;45231;44.826;20.312;2022-10-15T11:14:27;7.55;;;4.10;;
59424;SDS011;45231;44.826;20.312;2022-10-15T11:19:22;7.47;;;3.88;;
59424;SDS011;45231;44.826;20.312;2022-10-15T11:34:59;7.45;;;3.78;;
59424;SDS011;45231;44.826;20.312;2022-10-15T11:42:58;9.00;;;4.05;;
59424;SDS011;45231;44.826;20.312;2022-10-15T12:01:04;7.32;;;3.60;;
59424;SDS011;45231;44.826;20.312;2022-10-15T12:03:32;7.20;;;3.60;;
59424;SDS011;45231;44.826;20.312;2022-10-15T12:06:11;8.82;;;4.00;;
59424;SDS011;45231;44.826;20.312;2022-10-15T12:08:39;7.15;;;4.00;;
59424;SDS011;45231;44.826;20.312;2022-10-15T12:13:39;7.22;;;3.80;;
59424;SDS011;45231;44.826;20.312;2022-10-15T12:16:15;6.70;;;3.47;;
59424;SDS011;45231;44.826;20.312;2022-10-15T12:26:53;6.47;;;3.30;;
59424;SDS011;45231;44.826;20.312;2022-10-15T12:29:20;6.32;;;3.47;;
59424;SDS011;45231;44.826;20.312;2022-10-15T12:31:50;6.53;;;3.72;;
59424;SDS011;45231;44.826;20.312;2022-10-15T12:36:58;8.80;;;3.53;;
59424;SDS011;45231;44.826;20.312;2022-10-15T12:39:24;9.13;;;3.92;;
59424;SDS011;45231;44.826;20.312;2022-10-15T12:44:20;6.80;;;3.90;;
59424;SDS011;45231;44.826;20.312;2022-10-15T12:46:47;7.30;;;3.90;;
59424;SDS011;45231;44.826;20.312;2022-10-15T12:51:59;8.43;;;3.53;;
59424;SDS011;45231;44.826;20.312;2022-10-15T12:54:39;7.82;;;3.55;;
59424;SDS011;45231;44.826;20.312;2022-10-15T12:59:53;7.50;;;3.47;;
59424;SDS011;45231;44.826;20.312;2022-10-15T13:02:39;5.78;;;3.22;;
59424;SDS011;45231;44.826;20.312;2022-10-15T13:05:07;7.20;;;3.45;;
59424;SDS011;45231;44.826;20.312;2022-10-15T13:07:36;8.68;;;4.07;;
59424;SDS011;45231;44.826;20.312;2022-10-15T13:10:04;7.90;;;3.97;;
59424;SDS011;45231;44.826;20.312;2022-10-15T13:12:30;6.88;;;3.92;;
59424;SDS011;45231;44.826;20.312;2022-10-15T13:14:58;7.32;;;3.58;;
59424;SDS011;45231;44.826;20.312;2022-10-15T13:17:27;7.90;;;3.85;;
59424;SDS011;45231;44.826;20.312;2022-10-15T13:22:28;8.07;;;4.03;;
59424;SDS011;45231;44.826;20.312;2022-10-15T13:24:54;7.13;;;3.65;;
59424;SDS011;45231;44.826;20.312;2022-10-15T13:29:59;7.50;;;3.65;;
59424;SDS011;45231;44.826;20.312;2022-10-15T13:32:26;7.15;;;3.75;;
59424;SDS011;45231;44.826;20.312;2022-10-15T13:34:53;9.10;;;3.88;;
59424;SDS011;45231;44.826;20.312;2022-10-15T13:37:39;6.78;;;3.60;;
59424;SDS011;45231;44.826;20.312;2022-10-15T13:40:15;6.30;;;3.03;;
59424;SDS011;45231;44.826;20.312;2022-10-15T13:42:56;7.90;;;3.40;;
59424;SDS011;45231;44.826;20.312;2022-10-15T13:45:23;7.30;;;3.88;;
59424;SDS011;45231;44.826;20.312;2022-10-15T13:47:51;7.03;;;3.58;;
59424;SDS011;45231;44.826;20.312;2022-10-15T13:52:44;7.45;;;3.17;;
59424;SDS011;45231;44.826;20.312;2022-10-15T13:57:50;7.85;;;3.78;;
59424;SDS011;45231;44.826;20.312;2022-10-15T14:00:25;7.03;;;3.22;;
59424;SDS011;45231;44.826;20.312;2022-10-15T14:05:36;6.65;;;3.45;;
59424;SDS011;45231;44.826;20.312;2022-10-15T14:08:02;9.27;;;3.47;;
59424;SDS011;45231;44.826;20.312;2022-10-15T14:10:28;6.88;;;3.33;;
59424;SDS011;45231;44.826;20.312;2022-10-15T14:12:54;6.30;;;3.08;;
59424;SDS011;45231;44.826;20.312;2022-10-15T14:18:06;8.85;;;3.15;;
59424;SDS011;45231;44.826;20.312;2022-10-15T14:20:32;7.63;;;3.72;;
59424;SDS011;45231;44.826;20.312;2022-10-15T14:22:58;6.05;;;3.15;;
59424;SDS011;45231;44.826;20.312;2022-10-15T14:25:25;6.05;;;3.22;;
59424;SDS011;45231;44.826;20.312;2022-10-15T14:27:51;6.32;;;3.05;;
59424;SDS011;45231;44.826;20.312;2022-10-15T14:30:24;6.35;;;2.90;;
59424;SDS011;45231;44.826;20.312;2022-10-15T14:32:51;7.93;;;3.38;;
59424;SDS011;45231;44.826;20.312;2022-10-15T14:37:56;7.75;;;3.53;;
59424;SDS011;45231;44.826;20.312;2022-10-15T14:40:23;7.35;;;3.00;;
59424;SDS011;45231;44.826;20.312;2022-10-15T14:45:35;8.07;;;3.30;;
59424;SDS011;45231;44.826;20.312;2022-10-15T14:48:09;6.47;;;3.15;;
59424;SDS011;45231;44.826;20.312;2022-10-15T14:50:39;5.75;;;2.85;;
59424;SDS011;45231;44.826;20.312;2022-10-15T14:53:07;7.28;;;3.28;;
59424;SDS011;45231;44.826;20.312;2022-10-15T14:55:34;6.18;;;3.17;;
59424;SDS011;45231;44.826;20.312;2022-10-15T14:58:10;6.90;;;3.05;;
59424;SDS011;45231;44.826;20.312;2022-10-15T15:00:40;6.60;;;2.90;;
59424;SDS011;45231;44.826;20.312;2022-10-15T15:03:10;5.20;;;2.95;;
59424;SDS011;45231;44.826;20.312;2022-10-15T15:05:45;7.97;;;3.05;;
59424;SDS011;45231;44.826;20.312;2022-10-15T15:08:11;6.20;;;2.90;;
59424;SDS011;45231;44.826;20.312;2022-10-15T15:10:37;6.05;;;2.85;;
59424;SDS011;45231;44.826;20.312;2022-10-15T15:13:04;6.28;;;2.92;;
59424;SDS011;45231;44.826;20.312;2022-10-15T15:15:30;6.22;;;3.00;;
59424;SDS011;45231;44.826;20.312;2022-10-15T15:17:56;5.97;;;2.88;;
59424;SDS011;45231;44.826;20.312;2022-10-15T15:20:22;7.38;;;3.00;;
59424;SDS011;45231;44.826;20.312;2022-10-15T15:22:50;7.20;;;3.70;;
59424;SDS011;45231;44.826;20.312;2022-10-15T15:25:27;6.38;;;3.25;;
59424;SDS011;45231;44.826;20.312;2022-10-15T15:30:21;7.95;;;3.38;;
59424;SDS011;45231;44.826;20.312;2022-10-15T15:32:48;8.15;;;3.70;;
59424;SDS011;45231;44.826;20.312;2022-10-15T15:37:46;9.30;;;3.50;;
59424;SDS011;45231;44.826;20.312;2022-10-15T15:40:15;6.70;;;3.50;;
59424;SDS011;45231;44.826;20.312;2022-10-15T15:42:42;9.27;;;3.90;;
59424;SDS011;45231;44.826;20.312;2022-10-15T15:47:34;6.95;;;3.70;;
59424;SDS011;45231;44.826;20.312;2022-10-15T15:50:00;7.75;;;3.42;;
59424;SDS011;45231;44.826;20.312;2022-10-15T15:52:26;6.65;;;3.67;;
59424;SDS011;45231;44.826;20.312;2022-10-15T15:54:53;7.65;;;3.65;;
59424;SDS011;45231;44.826;20.312;2022-10-15T15:57:19;6.03;;;2.88;;
59424;SDS011;45231;44.826;20.312;2022-10-15T15:59:45;6.93;;;3.50;;
59424;SDS011;45231;44.826;20.312;2022-10-15T16:02:11;13.63;;;8.68;;
59424;SDS011;45231;44.826;20.312;2022-10-15T16:04:37;12.35;;;6.75;;
59424;SDS011;45231;44.826;20.312;2022-10-15T16:07:03;9.73;;;5.55;;
59424;SDS011;45231;44.826;20.312;2022-10-15T16:09:29;11.95;;;5.38;;
59424;SDS011;45231;44.826;20.312;2022-10-15T16:11:55;9.00;;;5.10;;
59424;SDS011;45231;44.826;20.312;2022-10-15T16:14:21;8.77;;;4.15;;
59424;SDS011;45231;44.826;20.312;2022-10-15T16:16:47;8.10;;;4.40;;
59424;SDS011;45231;44.826;20.312;2022-10-15T16:19:13;11.05;;;6.88;;
59424;SDS011;45231;44.826;20.312;2022-10-15T16:21:39;13.40;;;8.50;;
59424;SDS011;45231;44.826;20.312;2022-10-15T16:24:05;13.00;;;7.55;;
59424;SDS011;45231;44.826;20.312;2022-10-15T16:26:31;8.27;;;4.95;;
59424;SDS011;45231;44.826;20.312;2022-10-15T16:28:58;8.98;;;5.30;;
59424;SDS011;45231;44.826;20.312;2022-10-15T16:31:25;8.32;;;4.70;;
59424;SDS011;45231;44.826;20.312;2022-10-15T16:33:57;9.40;;;4.10;;
59424;SDS011;45231;44.826;20.312;2022-10-15T16:36:23;8.93;;;3.72;;
59424;SDS011;45231;44.826;20.312;2022-10-15T16:38:49;7.22;;;3.60;;
59424;SDS011;45231;44.826;20.312;2022-10-15T16:41:15;8.15;;;3.58;;
59424;SDS011;45231;44.826;20.312;2022-10-15T16:43:43;9.77;;;3.65;;
59424;SDS011;45231;44.826;20.312;2022-10-15T16:46:11;8.82;;;3.85;;
59424;SDS011;45231;44.826;20.312;2022-10-15T16:48:37;7.25;;;3.17;;
59424;SDS011;45231;44.826;20.312;2022-10-15T16:51:05;8.65;;;4.00;;
59424;SDS011;45231;44.826;20.312;2022-10-15T16:53:32;8.43;;;4.15;;
59424;SDS011;45231;44.826;20.312;2022-10-15T16:56:03;6.53;;;3.60;;
59424;SDS011;45231;44.826;20.312;2022-10-15T16:58:30;9.25;;;4.63;;
59424;SDS011;45231;44.826;20.312;2022-10-15T17:00:57;11.40;;;5.80;;
59424;SDS011;45231;44.826;20.312;2022-10-15T17:03:24;10.75;;;5.72;;
59424;SDS011;45231;44.826;20.312;2022-10-15T17:05:54;11.38;;;5.18;;
59424;SDS011;45231;44.826;20.312;2022-10-15T17:08:20;10.40;;;4.07;;
59424;SDS011;45231;44.826;20.312;2022-10-15T17:10:46;7.25;;;3.95;;
59424;SDS011;45231;44.826;20.312;2022-10-15T17:13:12;7.28;;;3.50;;
59424;SDS011;45231;44.826;20.312;2022-10-15T17:15:38;7.78;;;3.35;;
59424;SDS011;45231;44.826;20.312;2022-10-15T17:18:04;6.88;;;3.50;;
59424;SDS011;45231;44.826;20.312;2022-10-15T17:20:30;8.55;;;3.53;;
59424;SDS011;45231;44.826;20.312;2022-10-15T17:22:58;7.38;;;3.28;;
59424;SDS011;45231;44.826;20.312;2022-10-15T17:25:24;6.30;;;3.22;;
59424;SDS011;45231;44.826;20.312;2022-10-15T17:27:50;7.70;;;3.40;;
59424;SDS011;45231;44.826;20.312;2022-10-15T17:30:16;9.60;;;3.60;;
59424;SDS011;45231;44.826;20.312;2022-10-15T17:32:42;8.93;;;3.35;;
59424;SDS011;45231;44.826;20.312;2022-10-15T17:35:08;9.02;;;4.15;;
59424;SDS011;45231;44.826;20.312;2022-10-15T17:37:34;8.20;;;3.72;;
59424;SDS011;45231;44.826;20.312;2022-10-15T17:40:01;8.00;;;3.45;;
59424;SDS011;45231;44.826;20.312;2022-10-15T17:42:27;8.38;;;3.70;;
59424;SDS011;45231;44.826;20.312;2022-10-15T17:44:53;6.80;;;3.00;;
59424;SDS011;45231;44.826;20.312;2022-10-15T17:47:19;7.13;;;3.33;;
59424;SDS011;45231;44.826;20.312;2022-10-15T17:49:45;6.75;;;3.53;;
59424;SDS011;45231;44.826;20.312;2022-10-15T17:52:11;6.88;;;3.25;;
59424;SDS011;45231;44.826;20.312;2022-10-15T17:54:37;6.65;;;3.45;;
59424;SDS011;45231;44.826;20.312;2022-10-15T17:57:03;7.05;;;2.90;;
59424;SDS011;45231;44.826;20.312;2022-10-15T17:59:29;7.70;;;3.40;;